createdAt,value
2022-11-29T00:00:49.257Z,7.60
2022-11-29T00:03:16.366Z,7.50
2022-11-29T00:05:43.117Z,7.30
2022-11-29T00:08:09.792Z,7.10
2022-11-29T00:10:39.457Z,7.00
2022-11-29T00:13:06.115Z,6.90
2022-11-29T00:15:36.845Z,6.90
2022-11-29T00:18:04.450Z,6.90
2022-11-29T00:20:31.368Z,7.20
2022-11-29T00:22:58.071Z,7.50
2022-11-29T00:25:24.761Z,7.50
2022-11-29T00:27:51.524Z,7.60
2022-11-29T00:30:19.304Z,7.60
2022-11-29T00:32:45.996Z,7.60
2022-11-29T00:35:12.811Z,7.50
2022-11-29T00:37:39.526Z,7.60
2022-11-29T00:40:06.959Z,7.60
2022-11-29T00:42:33.794Z,7.40
2022-11-29T00:45:00.534Z,7.10
2022-11-29T00:47:27.197Z,7.00
2022-11-29T00:49:53.820Z,6.90
2022-11-29T00:52:20.553Z,6.90
2022-11-29T00:54:47.327Z,6.90
2022-11-29T00:57:14.023Z,6.80
2022-11-29T00:59:40.671Z,6.90
2022-11-29T01:02:07.432Z,7.10
2022-11-29T01:04:34.165Z,7.10
2022-11-29T01:07:00.914Z,7.20
2022-11-29T01:09:27.730Z,7.20
2022-11-29T01:11:54.381Z,7.30
2022-11-29T01:14:21.319Z,7.30
2022-11-29T01:16:48.150Z,7.50
2022-11-29T01:19:14.888Z,7.70
2022-11-29T01:21:41.649Z,7.70
2022-11-29T01:24:08.416Z,7.60
2022-11-29T01:26:35.121Z,7.60
2022-11-29T01:29:01.792Z,7.40
2022-11-29T01:31:35.868Z,7.40
2022-11-29T01:34:04.979Z,7.20
2022-11-29T01:36:32.191Z,7.10
2022-11-29T01:39:00.575Z,7.30
2022-11-29T01:41:30.095Z,7.10
2022-11-29T01:44:01.681Z,7.00
2022-11-29T01:46:31.487Z,7.30
2022-11-29T01:49:12.796Z,7.40
2022-11-29T01:51:42.933Z,7.40
2022-11-29T01:54:10.748Z,7.40
2022-11-29T01:56:38.760Z,7.20
2022-11-29T01:59:10.307Z,7.00
2022-11-29T02:01:38.198Z,7.00
2022-11-29T02:04:06.045Z,7.00
2022-11-29T02:06:33.637Z,7.00
2022-11-29T02:09:00.791Z,7.10
2022-11-29T02:11:48.963Z,7.10
2022-11-29T02:14:28.693Z,7.10
2022-11-29T02:17:34.232Z,7.20
2022-11-29T02:20:38.702Z,7.60
2022-11-29T02:23:15.988Z,7.60
2022-11-29T02:26:03.910Z,7.40
2022-11-29T02:29:02.078Z,7.20
2022-11-29T02:31:52.331Z,7.00
2022-11-29T02:34:34.023Z,6.80
2022-11-29T02:37:36.634Z,6.80
2022-11-29T02:40:25.316Z,6.80
2022-11-29T02:43:20.275Z,6.80
2022-11-29T02:45:46.947Z,6.80
2022-11-29T02:48:53.278Z,6.80
2022-11-29T02:51:39.090Z,6.90
2022-11-29T02:54:34.693Z,6.80
2022-11-29T02:57:22.909Z,7.10
2022-11-29T03:00:03.603Z,7.50
2022-11-29T03:02:39.600Z,7.60
2022-11-29T03:05:23.272Z,7.70
2022-11-29T03:08:27.561Z,7.40
2022-11-29T03:11:17.953Z,7.20
2022-11-29T03:14:05.767Z,7.10
2022-11-29T03:16:57.994Z,7.20
2022-11-29T03:19:53.608Z,7.30
2022-11-29T03:23:01.579Z,7.40
2022-11-29T03:25:42.338Z,7.30
2022-11-29T03:28:19.156Z,7.30
2022-11-29T03:31:25.089Z,7.30
2022-11-29T03:34:12.368Z,7.20
2022-11-29T03:37:08.308Z,7.20
2022-11-29T03:40:21.312Z,7.10
2022-11-29T03:42:57.936Z,7.00
2022-11-29T03:45:58.606Z,7.00
2022-11-29T03:48:35.175Z,6.90
2022-11-29T03:51:16.302Z,7.30
2022-11-29T03:54:01.252Z,7.50
2022-11-29T03:56:40.066Z,7.60
2022-11-29T03:59:27.455Z,7.60
2022-11-29T04:02:23.510Z,7.60
2022-11-29T04:05:25.121Z,7.60
2022-11-29T04:08:05.321Z,7.40
2022-11-29T04:11:06.315Z,7.30
2022-11-29T04:14:00.535Z,7.20
2022-11-29T04:16:41.895Z,7.10
2022-11-29T04:19:52.186Z,7.00
2022-11-29T04:22:39.635Z,7.00
2022-11-29T04:25:32.944Z,6.90
2022-11-29T04:28:33.643Z,6.90
2022-11-29T04:31:11.445Z,7.00
2022-11-29T04:34:23.101Z,7.10
2022-11-29T04:37:02.009Z,7.10
2022-11-29T04:39:49.813Z,7.00
2022-11-29T04:43:01.242Z,7.00
2022-11-29T04:45:58.591Z,7.00
2022-11-29T04:48:47.027Z,6.90
2022-11-29T04:51:31.266Z,6.90
2022-11-29T04:54:23.109Z,6.90
2022-11-29T04:56:56.901Z,6.90
2022-11-29T04:59:47.287Z,6.90
2022-11-29T05:02:53.722Z,7.00
2022-11-29T05:05:37.074Z,7.10
2022-11-29T05:08:19.689Z,7.20
2022-11-29T05:10:59.073Z,7.20
2022-11-29T05:13:44.940Z,7.10
2022-11-29T05:16:11.661Z,7.20
2022-11-29T05:18:53.355Z,7.20
2022-11-29T05:21:36.859Z,7.20
2022-11-29T05:24:22.352Z,7.20
2022-11-29T05:27:07.495Z,7.10
2022-11-29T05:29:50.955Z,7.20
2022-11-29T05:32:30.739Z,7.20
2022-11-29T05:35:03.752Z,7.10
2022-11-29T05:37:38.964Z,7.00
2022-11-29T05:40:34.080Z,7.00
2022-11-29T05:43:37.632Z,7.10
2022-11-29T05:46:19.752Z,7.10
2022-11-29T05:49:31.091Z,7.20
2022-11-29T05:51:57.726Z,7.10
2022-11-29T05:54:36.843Z,7.10
2022-11-29T05:57:22.016Z,7.30
2022-11-29T05:59:51.039Z,7.20
2022-11-29T06:02:26.642Z,7.30
2022-11-29T06:05:23.911Z,7.20
2022-11-29T06:08:14.026Z,7.20
2022-11-29T06:10:56.602Z,7.10
2022-11-29T06:13:36.794Z,7.20
2022-11-29T06:16:18.849Z,7.10
2022-11-29T06:18:53.306Z,7.00
2022-11-29T06:21:40.161Z,7.00
2022-11-29T06:24:19.420Z,7.20
2022-11-29T06:27:22.214Z,7.50
2022-11-29T06:30:09.164Z,7.60
2022-11-29T06:32:50.482Z,7.70
2022-11-29T06:35:22.959Z,7.70
2022-11-29T06:37:52.375Z,7.30
2022-11-29T06:40:19.063Z,7.20
2022-11-29T06:42:45.810Z,7.10
2022-11-29T06:45:14.062Z,7.00
2022-11-29T06:47:52.999Z,6.90
2022-11-29T06:50:51.827Z,7.00
2022-11-29T06:53:46.676Z,7.10
2022-11-29T06:56:16.445Z,7.30
2022-11-29T06:59:12.174Z,7.30
2022-11-29T07:02:14.865Z,7.30
2022-11-29T07:05:08.950Z,7.40
2022-11-29T07:07:36.172Z,7.40
2022-11-29T07:10:04.747Z,7.60
2022-11-29T07:12:31.776Z,7.60
2022-11-29T07:14:58.795Z,7.60
2022-11-29T07:17:46.029Z,7.80
2022-11-29T07:20:26.964Z,7.70
2022-11-29T07:23:24.106Z,7.70
2022-11-29T07:26:04.441Z,7.60
2022-11-29T07:28:34.344Z,7.70
2022-11-29T07:31:12.313Z,7.80
2022-11-29T07:34:02.995Z,7.80
2022-11-29T07:36:49.483Z,7.80
2022-11-29T07:39:25.499Z,7.60
2022-11-29T07:42:10.128Z,7.70
2022-11-29T07:45:01.679Z,7.80
2022-11-29T07:48:09.779Z,7.70
2022-11-29T07:50:37.526Z,7.80
2022-11-29T07:53:04.528Z,7.70
2022-11-29T07:55:34.676Z,7.80
2022-11-29T07:58:01.432Z,7.80
2022-11-29T08:00:28.231Z,7.60
2022-11-29T08:02:54.937Z,7.60
2022-11-29T08:05:23.068Z,7.60
2022-11-29T08:14:46.258Z,7.60
2022-11-29T08:17:20.862Z,7.50
2022-11-29T08:20:04.036Z,7.70
2022-11-29T08:22:39.313Z,7.60
2022-11-29T08:25:16.653Z,7.60
2022-11-29T08:27:45.039Z,7.70
2022-11-29T08:30:12.053Z,7.60
2022-11-29T08:32:38.805Z,7.70
2022-11-29T08:35:05.850Z,7.80
2022-11-29T08:37:32.635Z,7.80
2022-11-29T08:39:59.384Z,7.80
2022-11-29T08:42:26.163Z,7.90
2022-11-29T08:44:52.971Z,7.90
2022-11-29T08:47:37.776Z,7.90
2022-11-29T08:50:25.653Z,7.80
2022-11-29T08:53:12.882Z,7.80
2022-11-29T08:55:42.761Z,7.70
2022-11-29T08:58:44.604Z,7.70
2022-11-29T09:01:15.451Z,7.90
2022-11-29T09:04:02.211Z,7.80
2022-11-29T09:06:40.861Z,7.80
2022-11-29T09:09:07.669Z,7.90
2022-11-29T09:18:33.787Z,7.80
2022-11-29T09:21:00.682Z,7.90
2022-11-29T09:23:27.443Z,7.80
2022-11-29T09:25:54.504Z,7.80
2022-11-29T09:28:31.832Z,8.00
2022-11-29T09:31:11.208Z,8.10
2022-11-29T09:33:39.485Z,8.10
2022-11-29T09:36:08.242Z,7.90
2022-11-29T09:38:36.073Z,7.90
2022-11-29T09:41:08.347Z,8.00
2022-11-29T09:43:38.162Z,8.10
2022-11-29T09:46:23.674Z,8.20
2022-11-29T09:49:04.791Z,8.10
2022-11-29T09:51:55.434Z,8.20
2022-11-29T09:54:37.144Z,8.30
2022-11-29T09:57:10.581Z,8.40
2022-11-29T09:59:42.796Z,8.30
2022-11-29T10:02:21.110Z,8.40
2022-11-29T10:04:54.841Z,8.20
2022-11-29T10:07:28.289Z,8.10
2022-11-29T10:10:03.779Z,8.10
2022-11-29T10:12:50.810Z,8.10
2022-11-29T10:15:22.866Z,8.00
2022-11-29T10:18:17.055Z,7.90
2022-11-29T10:20:49.166Z,8.00
2022-11-29T10:23:43.632Z,7.90
2022-11-29T10:26:12.643Z,7.80
2022-11-29T10:28:44.912Z,7.80
2022-11-29T10:31:22.306Z,8.00
2022-11-29T10:33:49.995Z,8.10
2022-11-29T10:36:39.332Z,8.10
2022-11-29T10:39:14.577Z,8.20
2022-11-29T10:41:41.886Z,8.30
2022-11-29T10:44:13.129Z,8.40
2022-11-29T10:46:41.134Z,8.40
2022-11-29T10:49:16.855Z,8.30
2022-11-29T10:51:45.081Z,8.20
2022-11-29T10:54:44.241Z,8.10
2022-11-29T10:57:22.023Z,8.20
2022-11-29T11:00:00.946Z,8.10
2022-11-29T11:02:28.018Z,8.20
2022-11-29T11:04:54.851Z,8.30
2022-11-29T11:07:33.371Z,8.20
2022-11-29T11:10:00.778Z,8.40
2022-11-29T11:12:31.056Z,8.50
2022-11-29T11:15:28.301Z,8.50
2022-11-29T11:18:06.731Z,8.50
2022-11-29T11:20:42.373Z,8.50
2022-11-29T11:23:28.768Z,8.70
2022-11-29T11:26:02.206Z,8.70
2022-11-29T11:28:35.940Z,8.70
2022-11-29T11:31:08.260Z,8.60
2022-11-29T11:33:38.315Z,8.50
2022-11-29T11:36:21.173Z,8.70
2022-11-29T11:39:09.340Z,8.70
2022-11-29T11:42:00.218Z,8.70
2022-11-29T11:44:53.753Z,8.80
2022-11-29T11:47:29.811Z,8.80
2022-11-29T11:50:03.365Z,8.80
2022-11-29T11:52:40.056Z,8.80
2022-11-29T11:55:32.633Z,8.90
2022-11-29T11:58:10.159Z,9.00
2022-11-29T12:01:02.318Z,8.90
2022-11-29T12:03:30.074Z,8.70
2022-11-29T12:06:05.791Z,8.60
2022-11-29T12:08:35.469Z,8.70
2022-11-29T12:11:07.612Z,8.70
2022-11-29T12:13:39.562Z,8.60
2022-11-29T12:16:14.821Z,8.70
2022-11-29T12:18:50.057Z,8.80
2022-11-29T12:21:23.371Z,8.80
2022-11-29T12:23:56.953Z,8.90
2022-11-29T12:29:30.175Z,8.80
2022-11-29T12:31:57.085Z,8.90
2022-11-29T12:34:37.043Z,8.60
2022-11-29T12:37:29.087Z,8.70
2022-11-29T12:40:11.755Z,8.70
2022-11-29T12:42:44.699Z,8.80
2022-11-29T12:45:55.429Z,8.70
2022-11-29T12:48:22.142Z,8.60
2022-11-29T12:50:51.616Z,8.60
2022-11-29T12:53:36.338Z,8.60
2022-11-29T12:56:25.778Z,8.60
2022-11-29T12:59:04.578Z,8.80
2022-11-29T13:01:59.497Z,8.60
2022-11-29T13:04:44.381Z,8.70
2022-11-29T13:07:42.165Z,8.80
2022-11-29T13:10:29.823Z,8.80
2022-11-29T13:13:04.232Z,8.80
2022-11-29T13:15:56.610Z,8.90
2022-11-29T13:18:47.851Z,8.90
2022-11-29T13:21:20.848Z,8.90
2022-11-29T13:24:11.960Z,8.90
2022-11-29T13:26:43.762Z,8.90
2022-11-29T13:29:17.013Z,8.80
2022-11-29T13:31:45.619Z,8.80
2022-11-29T13:34:30.944Z,8.90
2022-11-29T13:37:33.243Z,8.90
2022-11-29T13:40:23.598Z,8.80
2022-11-29T13:43:01.411Z,8.80
2022-11-29T13:46:15.764Z,8.80
2022-11-29T13:49:00.792Z,8.80
2022-11-29T13:51:37.584Z,8.90
2022-11-29T13:54:34.493Z,8.70
2022-11-29T13:57:10.723Z,8.80
2022-11-29T13:59:44.258Z,8.80
2022-11-29T14:02:29.068Z,8.90
2022-11-29T14:04:56.203Z,8.70
2022-11-29T14:07:23.182Z,8.50
2022-11-29T14:09:56.935Z,8.60
2022-11-29T14:12:49.534Z,8.80
2022-11-29T14:15:31.316Z,8.80
2022-11-29T14:18:03.329Z,8.70
2022-11-29T14:20:30.109Z,8.80
2022-11-29T14:23:06.344Z,8.80
2022-11-29T14:28:20.831Z,8.80
2022-11-29T14:31:03.911Z,8.60
2022-11-29T14:33:56.913Z,8.70
2022-11-29T14:36:29.915Z,8.80
2022-11-29T14:39:19.188Z,8.70
2022-11-29T14:42:16.786Z,8.60
2022-11-29T14:44:52.833Z,8.50
2022-11-29T14:47:34.786Z,8.60
2022-11-29T14:50:07.390Z,8.70
2022-11-29T14:52:39.073Z,8.80
2022-11-29T14:55:25.898Z,8.90
2022-11-29T14:58:06.586Z,8.90
2022-11-29T15:00:39.616Z,8.80
2022-11-29T15:03:38.679Z,8.80
2022-11-29T15:06:15.206Z,8.60
2022-11-29T15:08:55.838Z,8.50
2022-11-29T15:11:50.737Z,8.50
2022-11-29T15:14:25.695Z,8.50
2022-11-29T15:17:19.505Z,8.40
2022-11-29T15:20:05.131Z,8.40
2022-11-29T15:22:47.423Z,8.60
2022-11-29T15:25:19.592Z,8.60
2022-11-29T15:27:51.828Z,8.40
2022-11-29T15:30:29.862Z,8.20
2022-11-29T15:32:59.756Z,8.40
2022-11-29T15:35:26.876Z,8.40
2022-11-29T15:37:54.493Z,8.50
2022-11-29T15:40:31.567Z,8.50
2022-11-29T15:43:15.206Z,8.30
2022-11-29T15:45:52.088Z,8.30
2022-11-29T15:48:28.190Z,8.30
2022-11-29T15:51:25.748Z,8.10
2022-11-29T15:54:13.242Z,8.20
2022-11-29T15:56:53.677Z,8.10
2022-11-29T15:59:36.184Z,8.10
2022-11-29T16:02:16.780Z,8.30
2022-11-29T16:04:47.762Z,8.30
2022-11-29T16:07:16.153Z,8.30
2022-11-29T16:09:47.966Z,8.30
2022-11-29T16:12:17.671Z,8.20
2022-11-29T16:14:59.109Z,8.30
2022-11-29T16:17:34.864Z,8.30
2022-11-29T16:20:13.996Z,8.30
2022-11-29T16:22:40.966Z,8.00
2022-11-29T16:25:16.516Z,7.90
2022-11-29T16:27:43.580Z,7.70
2022-11-29T16:30:25.652Z,7.70
2022-11-29T16:50:33.054Z,8.10
2022-11-29T16:53:37.262Z,8.00
2022-11-29T16:56:15.918Z,7.70
2022-11-29T17:02:34.280Z,7.80
2022-11-29T17:29:15.736Z,7.90
2022-11-29T17:31:44.646Z,8.00
2022-11-29T17:34:11.419Z,8.10
2022-11-29T17:36:38.406Z,8.10
2022-11-29T17:39:06.003Z,8.10
2022-11-29T17:41:33.605Z,8.00
2022-11-29T17:44:00.753Z,8.10
2022-11-29T17:46:30.371Z,8.00
2022-11-29T17:48:59.951Z,8.10
2022-11-29T17:51:51.267Z,8.20
2022-11-29T17:54:13.636Z,8.10
2022-11-29T17:56:40.316Z,8.00
2022-11-29T17:59:06.979Z,8.00
2022-11-29T18:01:35.564Z,8.10
2022-11-29T18:04:04.346Z,8.20
2022-11-29T18:06:37.636Z,8.20
2022-11-29T18:09:06.037Z,8.10
2022-11-29T18:11:48.176Z,8.00
2022-11-29T18:14:28.089Z,7.90
2022-11-29T18:16:55.002Z,7.90
2022-11-29T18:19:22.720Z,7.90
2022-11-29T18:21:50.200Z,7.90
2022-11-29T18:24:17.584Z,7.90
2022-11-29T18:26:44.352Z,7.90
2022-11-29T18:29:11.524Z,7.80
2022-11-29T18:31:40.980Z,7.80
2022-11-29T18:34:10.006Z,7.80
2022-11-29T18:36:39.913Z,7.90
2022-11-29T18:39:09.247Z,7.80
2022-11-29T18:41:37.258Z,7.80
2022-11-29T18:44:09.930Z,7.90
2022-11-29T18:46:38.522Z,7.90
2022-11-29T18:49:07.472Z,7.90
2022-11-29T18:51:35.296Z,8.00
2022-11-29T18:54:02.657Z,7.90
2022-11-29T18:56:31.442Z,7.80
2022-11-29T18:59:00.372Z,7.90
2022-11-29T19:01:29.651Z,7.90
2022-11-29T19:03:59.311Z,8.00
2022-11-29T19:06:32.961Z,8.20
2022-11-29T19:09:06.664Z,8.30
2022-11-29T19:11:34.833Z,8.20
2022-11-29T19:14:04.620Z,8.10
2022-11-29T19:16:34.150Z,8.00
2022-11-29T19:19:01.443Z,8.00
2022-11-29T19:21:31.722Z,7.90
2022-11-29T19:24:13.913Z,8.00
2022-11-29T19:26:44.165Z,8.00
2022-11-29T19:29:11.005Z,8.00
2022-11-29T19:31:39.204Z,8.00
2022-11-29T19:34:06.434Z,7.90
2022-11-29T19:36:33.109Z,8.00
2022-11-29T19:39:01.537Z,8.10
2022-11-29T19:41:30.901Z,8.10
2022-11-29T19:43:59.977Z,8.00
2022-11-29T19:46:29.850Z,8.00
2022-11-29T19:48:58.044Z,8.20
2022-11-29T19:51:26.273Z,8.20
2022-11-29T19:53:54.627Z,8.20
2022-11-29T19:56:22.141Z,8.00
2022-11-29T19:58:49.409Z,8.10
2022-11-29T20:01:19.703Z,8.10
2022-11-29T20:03:46.403Z,7.90
2022-11-29T20:06:13.738Z,7.60
2022-11-29T20:08:40.943Z,7.60
2022-11-29T20:11:10.420Z,7.90
2022-11-29T20:13:38.869Z,8.10
2022-11-29T20:16:09.730Z,8.10
2022-11-29T20:18:39.182Z,7.90
2022-11-29T20:21:09.189Z,7.80
2022-11-29T20:23:36.468Z,7.70
2022-11-29T20:26:05.639Z,7.80
2022-11-29T20:28:32.315Z,7.70
2022-11-29T20:31:09.040Z,7.70
2022-11-29T20:33:36.188Z,7.80
2022-11-29T20:36:30.253Z,7.80
2022-11-29T20:39:15.204Z,7.80
2022-11-29T20:41:46.665Z,7.80
2022-11-29T20:44:21.467Z,7.90
2022-11-29T20:46:48.309Z,7.80
2022-11-29T20:49:17.155Z,7.90
2022-11-29T20:51:56.153Z,7.80
2022-11-29T20:54:22.839Z,7.80
2022-11-29T20:56:49.607Z,7.70
2022-11-29T20:59:16.267Z,7.80
2022-11-29T21:01:43.075Z,7.90
2022-11-29T21:04:09.886Z,8.10
2022-11-29T21:06:38.322Z,8.20
2022-11-29T21:09:06.114Z,8.10
2022-11-29T21:11:33.064Z,8.10
2022-11-29T21:14:03.737Z,7.80
2022-11-29T21:16:31.957Z,7.80
2022-11-29T21:19:01.597Z,7.90
2022-11-29T21:21:46.873Z,7.90
2022-11-29T21:24:48.030Z,7.90
2022-11-29T21:27:20.436Z,7.50
2022-11-29T21:29:47.425Z,7.30
2022-11-29T21:32:22.011Z,7.30
2022-11-29T21:34:48.859Z,7.00
2022-11-29T21:37:17.717Z,7.00
2022-11-29T21:39:44.565Z,7.00
2022-11-29T21:42:11.235Z,7.00
2022-11-29T21:44:37.917Z,7.30
2022-11-29T21:47:04.850Z,7.40
2022-11-29T21:49:31.686Z,7.40
2022-11-29T21:52:00.964Z,7.50
2022-11-29T21:54:28.239Z,7.40
2022-11-29T21:56:55.615Z,7.40
2022-11-29T21:59:24.768Z,7.50
2022-11-29T22:01:52.641Z,7.50
2022-11-29T22:04:19.655Z,7.60
2022-11-29T22:06:47.359Z,7.60
2022-11-29T22:09:14.208Z,7.70
2022-11-29T22:11:41.189Z,7.90
2022-11-29T22:14:13.585Z,7.80
2022-11-29T22:16:49.269Z,7.60
2022-11-29T22:19:27.556Z,7.80
2022-11-29T22:21:57.129Z,8.00
2022-11-29T22:24:26.108Z,8.00
2022-11-29T22:26:53.887Z,7.80
2022-11-29T22:29:21.371Z,7.80
2022-11-29T22:31:50.360Z,7.80
2022-11-29T22:34:17.091Z,7.70
2022-11-29T22:36:43.769Z,7.70
2022-11-29T22:39:10.712Z,7.50
2022-11-29T22:41:39.307Z,7.50
2022-11-29T22:44:06.422Z,7.40
2022-11-29T22:46:35.349Z,7.60
2022-11-29T22:49:03.081Z,7.60
2022-11-29T22:51:32.433Z,7.60
2022-11-29T22:54:04.687Z,7.50
2022-11-29T22:56:35.367Z,7.50
2022-11-29T22:59:02.193Z,7.50
2022-11-29T23:01:31.387Z,7.50
2022-11-29T23:04:00.778Z,7.50
2022-11-29T23:06:29.433Z,7.50
2022-11-29T23:08:58.771Z,7.50
2022-11-29T23:11:27.811Z,7.60
2022-11-29T23:13:54.730Z,7.50
2022-11-29T23:16:23.832Z,7.50
2022-11-29T23:18:50.960Z,7.50
2022-11-29T23:21:20.421Z,7.60
2022-11-29T23:23:51.505Z,7.80
2022-11-29T23:26:24.735Z,7.90
2022-11-29T23:28:52.576Z,7.80
2022-11-29T23:31:20.196Z,7.70
2022-11-29T23:33:47.165Z,7.80
2022-11-29T23:36:14.644Z,7.60
2022-11-29T23:38:41.768Z,7.60
2022-11-29T23:41:09.726Z,7.50
2022-11-29T23:43:38.226Z,7.50
2022-11-29T23:46:19.921Z,7.50
2022-11-29T23:48:46.692Z,7.50
2022-11-29T23:51:13.488Z,7.60
2022-11-29T23:53:40.673Z,7.70
2022-11-29T23:56:13.113Z,7.70
2022-11-29T23:58:39.834Z,7.70
